Time;durP1;ratioP1;P1;durP2;ratioP2;P2;SDS_P1;SDS_P2;PMS_P1;PMS_P2;Temp;Humidity;BMP_temperature;BMP_pressure;BME280_temperature;BME280_humidity;BME280_pressure;Samples;Min_cycle;Max_cycle;Signal;HPM_P1;HPM_P2
2022/09/29 00:00:31;;;;;;;13.07;7.35;;;9.10;99.90;;;;;;5039190;28;20033;-72
2022/09/29 00:02:56;;;;;;;11.05;7.10;;;9.10;99.90;;;;;;5039334;28;20021;-71
2022/09/29 00:05:22;;;;;;;11.57;6.60;;;9.30;99.90;;;;;;5039136;28;20048;-71
2022/09/29 00:07:48;;;;;;;18.48;7.55;;;9.40;99.90;;;;;;5037711;28;20079;-73
2022/09/29 00:10:14;;;;;;;9.88;6.75;;;9.60;99.90;;;;;;5039219;28;20420;-72
2022/09/29 00:12:40;;;;;;;12.15;7.85;;;9.60;99.90;;;;;;5038814;28;20080;-71
2022/09/29 00:15:06;;;;;;;10.15;7.05;;;9.50;99.90;;;;;;5037929;28;20064;-71
2022/09/29 00:17:32;;;;;;;13.25;7.60;;;9.20;99.90;;;;;;5039018;28;20139;-71
2022/09/29 00:19:58;;;;;;;16.70;7.10;;;9.00;99.90;;;;;;5039283;28;20484;-71
2022/09/29 00:22:24;;;;;;;13.38;7.85;;;9.00;99.90;;;;;;5039222;28;20056;-70
2022/09/29 00:24:50;;;;;;;17.33;7.22;;;8.90;99.90;;;;;;5021302;28;20022;-71
2022/09/29 00:27:19;;;;;;;11.18;6.93;;;8.70;99.90;;;;;;5038702;28;20049;-71
2022/09/29 00:29:45;;;;;;;15.50;7.30;;;8.70;99.90;;;;;;5037498;28;20060;-71
2022/09/29 00:32:11;;;;;;;9.63;7.07;;;8.90;99.90;;;;;;5039205;28;20466;-71
2022/09/29 00:34:37;;;;;;;12.70;7.25;;;9.10;99.90;;;;;;5037643;28;20028;-69
2022/09/29 00:37:03;;;;;;;13.80;6.75;;;9.00;99.90;;;;;;5036920;28;20061;-72
2022/09/29 00:39:29;;;;;;;11.45;6.95;;;9.10;99.90;;;;;;5026309;28;20052;-71
2022/09/29 00:41:59;;;;;;;10.07;6.50;;;9.20;99.90;;;;;;5037366;28;20049;-71
2022/09/29 00:44:59;;;;;;;10.88;6.60;;;9.20;99.90;;;;;;5038932;28;20033;-71
2022/09/29 00:47:25;;;;;;;8.93;5.85;;;9.40;99.90;;;;;;5038982;28;20045;-71
2022/09/29 00:49:57;;;;;;;11.30;5.93;;;9.40;99.90;;;;;;5038809;28;20071;-71
2022/09/29 00:52:52;;;;;;;9.75;6.50;;;9.30;99.90;;;;;;5038682;28;20048;-71
2022/09/29 00:55:26;;;;;;;9.40;5.75;;;9.50;99.90;;;;;;5036782;28;20033;-71
2022/09/29 00:57:58;;;;;;;9.85;5.72;;;9.60;99.90;;;;;;5037867;28;20068;-71
2022/09/29 01:00:24;;;;;;;13.75;6.70;;;9.50;99.90;;;;;;5037530;28;20024;-72
2022/09/29 01:03:13;;;;;;;9.88;5.93;;;9.60;99.90;;;;;;5038782;28;20381;-72
2022/09/29 01:05:44;;;;;;;11.65;6.78;;;9.70;99.90;;;;;;5034295;28;20124;-71
2022/09/29 01:08:23;;;;;;;8.67;6.47;;;9.70;99.90;;;;;;5035560;28;20045;-71
2022/09/29 01:10:51;;;;;;;12.00;7.25;;;9.60;99.90;;;;;;5035222;28;20025;-71
2022/09/29 01:13:17;;;;;;;8.32;6.82;;;9.50;99.90;;;;;;5035569;28;20041;-71
2022/09/29 01:15:43;;;;;;;8.45;6.20;;;9.40;99.90;;;;;;5035590;28;20462;-71
2022/09/29 01:18:09;;;;;;;12.30;6.38;;;9.40;99.90;;;;;;5035357;28;20072;-71
2022/09/29 01:20:50;;;;;;;15.35;6.63;;;9.30;99.90;;;;;;5035321;28;20082;-71
2022/09/29 01:23:57;;;;;;;13.77;6.78;;;9.00;99.90;;;;;;5035329;28;20025;-71
2022/09/29 01:27:00;;;;;;;11.63;5.30;;;8.90;99.90;;;;;;5014444;28;20055;-70
2022/09/29 01:29:51;;;;;;;11.93;6.78;;;9.10;99.90;;;;;;5034993;28;20041;-71
2022/09/29 01:32:28;;;;;;;8.97;6.33;;;8.70;99.90;;;;;;5007964;28;20049;-71
2022/09/29 01:35:21;;;;;;;13.88;6.38;;;8.70;99.90;;;;;;5035020;28;20056;-71
2022/09/29 01:37:57;;;;;;;8.63;6.22;;;8.70;99.90;;;;;;5034165;28;20045;-71
2022/09/29 01:40:41;;;;;;;9.52;6.38;;;8.80;99.90;;;;;;5034393;28;20033;-71
2022/09/29 01:43:30;;;;;;;12.32;6.57;;;8.90;99.90;;;;;;5034904;28;20120;-71
2022/09/29 01:46:34;;;;;;;14.68;6.85;;;8.90;99.90;;;;;;5034995;28;20084;-71
2022/09/29 01:49:02;;;;;;;14.43;7.28;;;9.10;99.90;;;;;;5016635;28;20107;-69
2022/09/29 01:51:35;;;;;;;12.85;5.97;;;9.00;99.90;;;;;;5034624;28;20037;-70
2022/09/29 01:54:08;;;;;;;8.18;5.88;;;9.00;99.90;;;;;;5034545;28;20033;-70
2022/09/29 01:56:38;;;;;;;9.50;5.93;;;8.90;99.90;;;;;;5034401;28;20500;-70
2022/09/29 01:59:14;;;;;;;9.55;6.07;;;8.70;99.90;;;;;;5034583;28;20401;-71
2022/09/29 02:01:43;;;;;;;7.03;5.70;;;9.00;99.90;;;;;;5034478;28;20029;-71
2022/09/29 02:04:35;;;;;;;7.38;5.88;;;8.80;99.90;;;;;;5034813;28;20104;-71
2022/09/29 02:07:12;;;;;;;9.10;6.60;;;8.80;99.90;;;;;;5033134;28;20052;-71
2022/09/29 02:09:43;;;;;;;10.65;6.15;;;8.50;99.90;;;;;;5034141;28;20609;-71
2022/09/29 02:12:15;;;;;;;10.82;5.90;;;8.50;99.90;;;;;;5028914;28;20105;-71
2022/09/29 02:14:45;;;;;;;7.28;5.78;;;8.30;99.90;;;;;;5012918;28;20038;-71
2022/09/29 02:17:23;;;;;;;8.95;6.22;;;8.20;99.90;;;;;;5013795;28;20065;-71
2022/09/29 02:19:51;;;;;;;12.65;6.55;;;8.40;99.90;;;;;;5014303;28;20065;-71
2022/09/29 02:22:17;;;;;;;8.18;6.38;;;8.20;99.90;;;;;;5014240;28;20061;-71
2022/09/29 02:24:44;;;;;;;10.95;6.40;;;8.10;99.90;;;;;;5014479;28;20025;-71
2022/09/29 02:27:10;;;;;;;8.57;5.93;;;8.30;99.90;;;;;;5012732;28;20386;-70
2022/09/29 02:29:37;;;;;;;8.18;5.95;;;8.20;99.90;;;;;;5013968;28;20057;-71
2022/09/29 02:32:04;;;;;;;13.45;6.05;;;8.10;99.90;;;;;;5013169;28;20030;-71
2022/09/29 02:34:40;;;;;;;15.23;6.47;;;8.20;99.90;;;;;;5014146;28;20042;-71
2022/09/29 02:37:26;;;;;;;11.98;6.68;;;8.10;99.90;;;;;;5013685;28;20067;-70
2022/09/29 02:40:17;;;;;;;11.35;6.88;;;8.30;99.90;;;;;;5014135;28;20056;-71
2022/09/29 02:43:11;;;;;;;9.18;6.43;;;8.40;99.90;;;;;;5012548;28;20041;-71
2022/09/29 02:45:48;;;;;;;10.90;6.15;;;8.20;99.90;;;;;;5003035;28;20048;-71
2022/09/29 02:48:48;;;;;;;11.40;6.38;;;8.00;99.90;;;;;;5013694;28;20041;-71
2022/09/29 02:51:30;;;;;;;16.02;6.22;;;8.00;99.90;;;;;;4980238;28;20034;-71
2022/09/29 02:54:08;;;;;;;15.32;6.85;;;8.00;99.90;;;;;;5012753;28;20032;-71
2022/09/29 02:56:58;;;;;;;20.17;7.90;;;8.00;99.90;;;;;;5013684;28;20073;-71
2022/09/29 02:59:30;;;;;;;16.65;7.55;;;8.10;99.90;;;;;;5012589;28;20032;-71
2022/09/29 03:01:56;;;;;;;18.08;6.60;;;7.90;99.90;;;;;;5013581;28;20034;-71
2022/09/29 03:04:25;;;;;;;17.73;6.43;;;8.00;99.90;;;;;;5012430;28;20506;-70
2022/09/29 03:06:51;;;;;;;14.23;7.10;;;8.00;99.90;;;;;;5013038;28;20018;-71
2022/09/29 03:09:17;;;;;;;11.75;6.35;;;8.00;99.90;;;;;;5013680;28;20120;-71
2022/09/29 03:11:43;;;;;;;10.45;7.05;;;8.00;99.90;;;;;;5013548;28;20108;-71
2022/09/29 03:14:09;;;;;;;12.10;6.60;;;8.10;99.90;;;;;;5012181;28;20124;-70
2022/09/29 03:16:35;;;;;;;12.30;6.85;;;8.10;99.90;;;;;;5013565;28;20014;-71
2022/09/29 03:19:02;;;;;;;11.50;7.07;;;8.00;99.90;;;;;;5013369;28;20030;-71
2022/09/29 03:21:28;;;;;;;18.35;6.95;;;8.10;99.90;;;;;;5013106;28;20022;-71
2022/09/29 03:23:54;;;;;;;12.20;6.90;;;8.00;99.90;;;;;;5013420;28;20029;-71
2022/09/29 03:26:20;;;;;;;17.38;7.22;;;8.00;99.90;;;;;;5013025;28;20112;-71
2022/09/29 03:28:46;;;;;;;10.80;6.88;;;7.90;99.90;;;;;;5011367;28;20045;-71
2022/09/29 03:31:12;;;;;;;9.10;6.55;;;8.00;99.90;;;;;;5011962;28;20528;-71
2022/09/29 03:33:38;;;;;;;15.13;6.88;;;8.00;99.90;;;;;;5013311;28;20045;-71
2022/09/29 03:36:05;;;;;;;20.17;6.80;;;8.10;99.90;;;;;;5012928;28;20030;-71
2022/09/29 03:38:32;;;;;;;11.57;6.78;;;8.10;99.90;;;;;;5011915;28;20120;-71
2022/09/29 03:40:58;;;;;;;12.57;6.25;;;7.90;99.90;;;;;;5011760;28;20034;-71
2022/09/29 03:43:23;;;;;;;10.88;6.78;;;7.50;99.90;;;;;;5011845;28;20029;-71
2022/09/29 03:45:51;;;;;;;11.38;6.63;;;7.50;99.90;;;;;;5013259;28;20029;-68
2022/09/29 03:48:18;;;;;;;11.88;6.05;;;7.70;99.90;;;;;;5012898;28;20069;-71
2022/09/29 03:50:45;;;;;;;9.07;5.90;;;7.70;99.90;;;;;;5013012;28;20034;-71
2022/09/29 03:53:11;;;;;;;8.98;6.25;;;7.80;99.90;;;;;;5012830;28;20076;-71
2022/09/29 03:55:37;;;;;;;9.93;7.45;;;7.80;99.90;;;;;;5011903;28;20033;-71
2022/09/29 03:58:03;;;;;;;10.27;6.53;;;7.80;99.90;;;;;;5012802;28;20092;-71
2022/09/29 04:00:28;;;;;;;14.15;6.63;;;7.70;99.90;;;;;;5012892;28;20042;-71
2022/09/29 04:02:54;;;;;;;15.02;7.07;;;7.80;99.90;;;;;;5013025;28;20465;-71
2022/09/29 04:05:20;;;;;;;10.88;6.95;;;7.80;99.90;;;;;;5012506;28;20482;-70
2022/09/29 04:07:46;;;;;;;8.25;6.20;;;8.00;99.90;;;;;;5012734;28;20034;-71
2022/09/29 04:10:12;;;;;;;10.55;6.30;;;7.90;99.90;;;;;;5012841;28;20501;-71
2022/09/29 04:12:38;;;;;;;9.07;5.75;;;7.80;99.90;;;;;;5012690;28;20088;-71
2022/09/29 04:15:05;;;;;;;13.38;6.13;;;7.90;99.90;;;;;;5011589;28;20390;-71
2022/09/29 04:17:30;;;;;;;10.25;6.32;;;8.00;99.90;;;;;;5012751;28;20057;-69
2022/09/29 04:19:56;;;;;;;15.73;7.05;;;7.90;99.90;;;;;;5012766;28;20049;-70
2022/09/29 04:22:22;;;;;;;12.40;6.57;;;7.80;99.90;;;;;;5012536;28;20026;-70
2022/09/29 04:24:48;;;;;;;15.35;6.53;;;7.30;99.90;;;;;;5012701;28;20057;-69
2022/09/29 04:27:14;;;;;;;11.07;6.50;;;7.20;99.90;;;;;;5012750;28;20077;-70
2022/09/29 04:29:40;;;;;;;12.57;6.55;;;7.20;99.90;;;;;;5012488;28;20470;-70
2022/09/29 04:32:06;;;;;;;9.82;7.00;;;7.10;99.90;;;;;;5012878;28;20133;-71
2022/09/29 04:34:32;;;;;;;10.27;6.85;;;7.20;99.90;;;;;;5012192;28;20027;-70
2022/09/29 04:36:58;;;;;;;10.98;7.20;;;7.30;99.90;;;;;;5011327;28;20069;-71
2022/09/29 04:39:24;;;;;;;10.98;7.30;;;7.30;99.90;;;;;;5013744;28;20053;-71
2022/09/29 04:41:50;;;;;;;12.65;7.60;;;7.20;99.90;;;;;;5016332;28;20058;-71
2022/09/29 04:44:15;;;;;;;16.95;8.07;;;7.30;99.90;;;;;;5016301;28;20060;-69
2022/09/29 04:46:41;;;;;;;16.33;8.45;;;7.60;99.90;;;;;;5015963;28;20049;-71
2022/09/29 04:49:07;;;;;;;16.85;7.95;;;7.60;99.90;;;;;;5015943;28;20049;-71
2022/09/29 04:51:33;;;;;;;16.33;8.07;;;7.60;99.90;;;;;;5016012;28;20434;-71
2022/09/29 04:53:59;;;;;;;14.07;7.82;;;7.50;99.90;;;;;;5016103;28;20038;-71
2022/09/29 04:56:30;;;;;;;13.93;8.02;;;7.70;99.90;;;;;;5015850;28;20397;-70
2022/09/29 04:58:59;;;;;;;11.93;7.78;;;7.60;99.90;;;;;;5015913;28;20038;-71
2022/09/29 05:01:25;;;;;;;12.52;8.05;;;7.60;99.90;;;;;;5015667;28;20352;-71
2022/09/29 05:03:51;;;;;;;14.00;8.15;;;7.80;99.90;;;;;;5015701;28;20032;-70
2022/09/29 05:06:17;;;;;;;13.60;7.72;;;7.80;99.90;;;;;;5016596;28;20386;-71
2022/09/29 05:08:43;;;;;;;14.38;8.35;;;7.70;99.90;;;;;;5015392;28;20088;-71
2022/09/29 05:11:09;;;;;;;20.80;8.10;;;7.70;99.90;;;;;;5015799;28;20018;-71
2022/09/29 05:13:36;;;;;;;12.27;8.90;;;7.60;99.90;;;;;;5015622;28;20026;-71
2022/09/29 05:16:02;;;;;;;16.02;9.40;;;7.60;99.90;;;;;;5015306;28;20474;-71
2022/09/29 05:18:29;;;;;;;16.38;9.85;;;7.80;99.90;;;;;;5015556;28;20045;-71
2022/09/29 05:20:55;;;;;;;15.57;9.95;;;8.00;99.90;;;;;;5015476;28;20034;-71
2022/09/29 05:23:20;;;;;;;14.90;9.43;;;7.80;99.90;;;;;;5015574;28;20025;-71
2022/09/29 05:25:46;;;;;;;16.55;9.60;;;7.60;99.90;;;;;;5015250;28;20100;-71
2022/09/29 05:28:14;;;;;;;13.20;9.43;;;7.80;99.90;;;;;;5015458;28;20034;-71
2022/09/29 05:30:41;;;;;;;22.70;8.95;;;7.70;99.90;;;;;;5014822;28;20490;-70
2022/09/29 05:33:07;;;;;;;22.25;10.15;;;7.50;99.90;;;;;;5015296;28;20503;-71
2022/09/29 05:35:32;;;;;;;14.77;9.25;;;7.60;99.90;;;;;;5014830;28;20022;-71
2022/09/29 05:37:58;;;;;;;16.88;10.52;;;7.60;99.90;;;;;;5013400;28;20400;-71
2022/09/29 05:40:25;;;;;;;20.73;10.27;;;7.80;99.90;;;;;;5014827;28;20033;-70
2022/09/29 05:42:52;;;;;;;21.83;10.10;;;7.70;99.90;;;;;;5013670;28;20030;-71
2022/09/29 05:45:17;;;;;;;19.15;10.18;;;7.70;99.90;;;;;;5012447;28;20034;-70
2022/09/29 05:47:44;;;;;;;12.68;9.27;;;7.70;99.90;;;;;;5018301;28;20042;-70
2022/09/29 05:50:11;;;;;;;20.33;10.15;;;7.70;99.90;;;;;;5014908;28;20084;-69
2022/09/29 05:52:38;;;;;;;21.60;9.55;;;7.70;99.90;;;;;;5018275;28;20088;-70
2022/09/29 05:55:05;;;;;;;22.15;10.75;;;7.70;99.90;;;;;;5019666;28;20033;-70
2022/09/29 05:57:31;;;;;;;21.23;10.00;;;7.70;99.90;;;;;;5019794;28;20063;-71
2022/09/29 05:59:57;;;;;;;28.48;11.68;;;7.80;99.90;;;;;;5017644;28;20065;-70
2022/09/29 06:02:23;;;;;;;16.02;10.45;;;8.00;99.90;;;;;;5015209;28;20033;-70
2022/09/29 06:04:49;;;;;;;18.67;10.95;;;8.10;99.90;;;;;;5019113;28;20021;-67
2022/09/29 06:07:14;;;;;;;23.38;11.60;;;8.10;99.90;;;;;;5019961;28;20025;-70
2022/09/29 06:09:40;;;;;;;17.00;11.05;;;8.40;99.90;;;;;;5020554;28;20072;-70
2022/09/29 06:12:06;;;;;;;21.75;11.00;;;8.00;99.90;;;;;;5016797;28;20029;-71
2022/09/29 06:14:31;;;;;;;20.52;11.18;;;7.70;99.90;;;;;;5013441;28;20041;-70
2022/09/29 06:16:57;;;;;;;20.98;11.95;;;7.80;99.90;;;;;;5013787;28;20117;-71
2022/09/29 06:19:23;;;;;;;26.13;12.32;;;8.10;99.90;;;;;;5013470;28;20471;-70
2022/09/29 06:21:49;;;;;;;26.33;13.88;;;8.40;99.90;;;;;;5012521;28;20045;-70
2022/09/29 06:24:14;;;;;;;24.38;13.45;;;8.60;99.90;;;;;;5012950;28;20075;-71
2022/09/29 06:26:40;;;;;;;21.77;13.45;;;8.80;99.90;;;;;;5013577;28;20017;-71
2022/09/29 06:29:06;;;;;;;23.10;12.90;;;8.80;99.90;;;;;;5013139;28;20030;-71
2022/09/29 06:31:32;;;;;;;20.52;11.75;;;8.80;99.90;;;;;;5012586;28;20026;-70
2022/09/29 06:34:02;;;;;;;16.40;10.82;;;8.70;99.90;;;;;;5007726;28;20545;-71
2022/09/29 06:39:23;;;;;;;23.05;11.75;;;8.90;99.90;;;;;;5013570;28;20026;-70
2022/09/29 06:41:53;;;;;;;20.35;11.73;;;9.00;99.90;;;;;;5013326;28;20030;-70
2022/09/29 06:44:21;;;;;;;22.23;11.65;;;9.00;99.90;;;;;;5012638;28;20022;-71
2022/09/29 06:46:47;;;;;;;18.13;10.43;;;9.10;99.90;;;;;;5011898;28;20032;-70
2022/09/29 06:49:16;;;;;;;22.02;11.15;;;9.20;99.90;;;;;;5013329;28;20445;-70
2022/09/29 06:51:42;;;;;;;18.75;11.55;;;9.00;99.90;;;;;;5012932;28;20022;-70
2022/09/29 06:54:17;;;;;;;24.02;11.82;;;9.20;99.90;;;;;;4992512;28;20033;-70
2022/09/29 06:56:51;;;;;;;18.10;11.85;;;9.30;99.90;;;;;;5011711;28;20486;-71
2022/09/29 06:59:16;;;;;;;23.45;13.15;;;9.30;99.90;;;;;;5012943;28;20051;-70
2022/09/29 07:01:42;;;;;;;25.15;13.27;;;9.70;99.90;;;;;;5012646;28;20018;-71
2022/09/29 07:04:08;;;;;;;21.60;13.00;;;9.50;99.90;;;;;;5011332;28;20398;-71
2022/09/29 07:06:34;;;;;;;20.38;12.45;;;9.70;99.90;;;;;;5011743;28;20018;-70
2022/09/29 07:09:00;;;;;;;17.85;11.82;;;9.70;99.90;;;;;;5011930;28;20034;-71
2022/09/29 07:11:26;;;;;;;22.00;13.15;;;9.80;99.90;;;;;;5009161;28;20101;-71
2022/09/29 07:13:53;;;;;;;20.42;12.25;;;10.00;99.90;;;;;;5010783;28;20461;-72
2022/09/29 07:16:22;;;;;;;28.45;13.52;;;10.10;99.90;;;;;;5011727;28;20026;-71
2022/09/29 07:18:48;;;;;;;21.00;13.15;;;10.30;99.90;;;;;;5011691;28;20355;-71
2022/09/29 07:21:18;;;;;;;27.33;13.13;;;10.10;99.90;;;;;;5006035;28;20426;-71
2022/09/29 07:23:45;;;;;;;25.52;11.95;;;10.00;99.90;;;;;;5012229;28;20036;-71
2022/09/29 07:26:12;;;;;;;26.15;13.20;;;10.00;99.90;;;;;;5013090;28;20030;-70
2022/09/29 07:28:37;;;;;;;17.38;12.50;;;10.20;99.90;;;;;;5011534;28;20402;-70
2022/09/29 07:31:06;;;;;;;27.75;14.02;;;10.30;99.90;;;;;;5013299;28;20033;-70
2022/09/29 07:33:32;;;;;;;23.95;13.10;;;10.20;99.90;;;;;;5011992;28;20578;-70
2022/09/29 07:35:59;;;;;;;36.17;17.50;;;10.40;99.90;;;;;;5013065;28;20038;-70
2022/09/29 07:38:26;;;;;;;27.35;17.67;;;10.50;99.90;;;;;;5013128;28;20018;-71
2022/09/29 07:40:52;;;;;;;20.35;13.65;;;10.20;99.90;;;;;;5013180;28;20087;-70
2022/09/29 07:43:17;;;;;;;28.52;17.90;;;10.30;99.90;;;;;;5012478;28;20108;-70
2022/09/29 07:45:48;;;;;;;21.67;15.13;;;10.40;99.90;;;;;;5013210;28;20085;-70
2022/09/29 07:48:14;;;;;;;20.25;12.02;;;10.50;99.90;;;;;;5012680;28;20034;-70
2022/09/29 07:50:41;;;;;;;22.65;12.40;;;10.60;99.90;;;;;;5013134;28;20053;-70
2022/09/29 07:53:07;;;;;;;19.92;12.80;;;10.40;99.90;;;;;;5012944;28;20478;-70
2022/09/29 07:55:32;;;;;;;23.15;12.05;;;10.60;99.90;;;;;;5012875;28;20084;-70
2022/09/29 07:58:00;;;;;;;27.95;13.00;;;10.70;99.90;;;;;;5012708;28;20367;-70
2022/09/29 08:00:26;;;;;;;22.50;12.80;;;11.00;99.90;;;;;;5012994;28;20463;-71
2022/09/29 08:02:51;;;;;;;20.17;11.85;;;11.20;99.90;;;;;;5012726;28;20033;-71
2022/09/29 08:05:18;;;;;;;23.35;12.40;;;11.20;99.90;;;;;;5012932;28;20399;-70
2022/09/29 08:07:44;;;;;;;19.98;11.95;;;11.20;99.90;;;;;;5012673;28;20049;-70
2022/09/29 08:10:10;;;;;;;21.23;11.68;;;11.40;99.90;;;;;;5012605;28;20017;-70
2022/09/29 08:12:35;;;;;;;24.92;12.15;;;11.20;99.90;;;;;;5012987;28;20030;-70
2022/09/29 08:15:01;;;;;;;19.02;11.52;;;11.70;99.90;;;;;;5015065;28;20379;-70
2022/09/29 08:17:27;;;;;;;18.20;10.20;;;11.90;99.90;;;;;;5016986;28;20022;-70
2022/09/29 08:19:52;;;;;;;23.48;10.07;;;12.20;99.90;;;;;;5016725;28;20080;-70
2022/09/29 08:22:18;;;;;;;18.80;10.15;;;12.10;99.90;;;;;;5015297;28;20390;-69
2022/09/29 08:24:44;;;;;;;24.17;10.82;;;12.50;99.90;;;;;;5016266;28;20026;-70
2022/09/29 08:27:10;;;;;;;15.98;8.70;;;12.60;99.90;;;;;;5016418;28;20045;-70
2022/09/29 08:29:35;;;;;;;15.45;8.55;;;12.50;99.90;;;;;;5016330;28;20033;-71
2022/09/29 08:32:01;;;;;;;20.63;8.98;;;12.80;99.90;;;;;;5016511;28;20113;-70
2022/09/29 08:34:27;;;;;;;15.52;8.93;;;13.00;99.90;;;;;;5016295;28;20658;-70
2022/09/29 08:36:54;;;;;;;13.95;7.28;;;12.80;99.90;;;;;;5016319;28;20033;-70
2022/09/29 08:39:20;;;;;;;14.52;7.15;;;13.20;99.90;;;;;;5015888;28;20142;-70
2022/09/29 08:41:58;;;;;;;13.57;8.65;;;13.20;99.90;;;;;;5016443;28;20057;-69
2022/09/29 08:44:42;;;;;;;21.58;8.20;;;13.20;99.90;;;;;;5014845;28;20017;-71
2022/09/29 08:47:27;;;;;;;10.88;6.78;;;13.20;99.90;;;;;;5016117;28;20372;-70
2022/09/29 08:49:59;;;;;;;7.72;5.15;;;13.30;99.90;;;;;;5015703;28;20047;-70
2022/09/29 08:52:30;;;;;;;16.20;6.43;;;13.60;99.90;;;;;;5015237;28;20109;-71
2022/09/29 08:55:22;;;;;;;8.75;4.15;;;13.80;99.90;;;;;;5015378;28;20043;-70
2022/09/29 08:57:51;;;;;;;;;;;13.90;99.90;;;;;;4980994;28;20076;-69
2022/09/29 09:00:18;;;;;;;;;;;14.10;99.90;;;;;;5002896;28;19916;-70
2022/09/29 09:02:53;;;;;;;;;;;13.90;99.90;;;;;;5016436;28;19913;-70
2022/09/29 09:05:22;;;;;;;;;;;14.40;99.90;;;;;;5016288;28;19996;-70
2022/09/29 09:08:06;;;;;;;;;;;14.60;99.90;;;;;;5016479;28;19917;-70
2022/09/29 09:10:40;;;;;;;;;;;14.50;99.90;;;;;;5003099;28;20277;-70
2022/09/29 09:13:05;;;;;;;;;;;14.40;99.90;;;;;;5016371;28;19932;-68
2022/09/29 09:15:47;;;;;;;;;;;14.50;99.90;;;;;;5015994;28;20354;-69
2022/09/29 09:18:29;;;;;;;;;;;14.70;99.90;;;;;;5014930;28;19964;-69
2022/09/29 09:21:00;;;;;;;;;;;14.70;99.90;;;;;;5004066;28;20270;-69
2022/09/29 09:23:39;;;;;;;;;;;14.90;99.90;;;;;;5015666;28;19949;-70
2022/09/29 09:26:05;;;;;;;;;;;15.40;99.90;;;;;;5014695;28;19909;-70
2022/09/29 09:28:43;;;;;;;;;;;15.10;99.90;;;;;;5016047;28;20300;-70
2022/09/29 09:31:12;;;;;;;;;;;15.10;99.90;;;;;;5015573;28;19921;-71
2022/09/29 09:33:47;;;;;;;;;;;15.30;99.90;;;;;;5015848;28;20404;-70
2022/09/29 09:36:16;;;;;;;;;;;15.50;99.90;;;;;;5015659;28;19952;-71
2022/09/29 09:38:41;;;;;;;;;;;15.40;99.90;;;;;;5015703;28;19906;-71
2022/09/29 09:41:07;;;;;;;;;;;15.60;99.90;;;;;;5001700;28;20310;-71
2022/09/29 09:43:37;;;;;;;;;;;15.30;99.90;;;;;;5015839;28;19913;-70
2022/09/29 09:46:08;;;;;;;;;;;15.10;99.90;;;;;;5015147;28;19916;-70
2022/09/29 09:48:37;;;;;;;;;;;15.00;99.90;;;;;;5014571;28;19924;-70
2022/09/29 09:51:17;;;;;;;;;;;14.90;99.90;;;;;;5015413;28;19967;-71
2022/09/29 09:53:43;;;;;;;;;;;14.70;99.90;;;;;;5015415;28;20401;-70
2022/09/29 09:56:12;;;;;;;;;;;14.60;99.90;;;;;;5015310;28;19991;-70
2022/09/29 09:58:56;;;;;;;;;;;14.20;99.90;;;;;;5015344;28;19914;-70
2022/09/29 10:01:22;;;;;;;;;;;14.40;99.90;;;;;;5015220;28;19972;-70
2022/09/29 10:03:48;;;;;;;;;;;14.90;99.90;;;;;;5015452;28;19909;-70
2022/09/29 10:06:13;;;;;;;;;;;15.30;99.90;;;;;;5014680;28;19909;-71
2022/09/29 10:08:41;;;;;;;;;;;15.80;99.90;;;;;;5015178;28;19921;-70
2022/09/29 10:11:30;;;;;;;;;;;16.30;99.90;;;;;;5014968;28;19964;-70
2022/09/29 10:14:14;;;;;;;;;;;16.70;99.90;;;;;;5015077;28;20003;-67
2022/09/29 10:16:45;;;;;;;;;;;16.70;99.90;;;;;;5014647;28;19909;-69
2022/09/29 10:19:11;;;;;;;;;;;16.50;99.90;;;;;;5015070;28;19913;-70
2022/09/29 10:21:38;;;;;;;;;;;16.30;99.90;;;;;;5014676;28;20374;-70
2022/09/29 10:24:06;;;;;;;;;;;16.60;99.90;;;;;;5014821;28;19996;-71
2022/09/29 10:26:36;;;;;;;;;;;16.30;99.90;;;;;;5014525;28;19909;-69
2022/09/29 10:29:15;;;;;;;;;;;16.50;99.90;;;;;;5014585;28;19917;-70
2022/09/29 10:31:41;;;;;;;;;;;17.40;99.90;;;;;;5014631;28;19922;-70
2022/09/29 10:34:19;;;;;;;;;;;17.00;99.90;;;;;;5014841;28;20269;-70
2022/09/29 10:36:48;;;;;;;;;;;17.30;99.90;;;;;;5014081;28;20273;-70
2022/09/29 10:39:33;;;;;;;;;;;16.60;99.90;;;;;;5014232;28;19916;-70
2022/09/29 10:41:58;;;;;;;;;;;16.30;99.90;;;;;;5014433;28;20251;-70
2022/09/29 10:44:29;;;;;;;;;;;15.70;99.90;;;;;;5014480;28;19936;-70
2022/09/29 10:46:55;;;;;;;;;;;16.10;99.90;;;;;;5014106;28;19909;-70
2022/09/29 10:49:22;;;;;;;;;;;15.90;99.90;;;;;;5014499;28;19913;-70
2022/09/29 10:51:52;;;;;;;;;;;16.00;99.90;;;;;;5014190;28;19949;-70
2022/09/29 10:54:17;;;;;;;;;;;16.10;99.90;;;;;;5014337;28;19956;-71
2022/09/29 10:56:47;;;;;;;;;;;16.80;99.90;;;;;;5013898;28;19948;-70
2022/09/29 10:59:13;;;;;;;;;;;17.70;99.90;;;;;;5014254;28;19945;-71
2022/09/29 11:01:48;;;;;;;;;;;18.90;99.90;;;;;;5014271;28;19949;-70
2022/09/29 11:04:18;;;;;;;;;;;19.30;99.90;;;;;;5013941;28;19909;-70
2022/09/29 11:06:43;;;;;;;;;;;20.00;99.00;;;;;;5012543;28;20317;-70
2022/09/29 11:09:12;;;;;;;;;;;19.20;98.70;;;;;;5014010;28;19913;-70
2022/09/29 11:11:46;;;;;;;;;;;18.60;99.90;;;;;;5013882;28;20007;-70
2022/09/29 11:14:25;;;;;;;;;;;18.50;99.90;;;;;;5014252;28;19916;-70
2022/09/29 11:16:52;;;;;;;;;;;18.30;99.90;;;;;;5013892;28;20358;-70
2022/09/29 11:19:18;;;;;;;;;;;18.20;99.90;;;;;;5012382;28;19916;-70
2022/09/29 11:21:50;;;;;;;;;;;18.00;99.90;;;;;;5012390;28;19909;-69
2022/09/29 11:24:34;;;;;;;;;;;17.90;99.90;;;;;;5013672;28;19944;-71
2022/09/29 11:27:03;;;;;;;;;;;17.50;99.90;;;;;;5013663;28;19909;-70
2022/09/29 11:29:44;;;;;;;;;;;17.50;99.90;;;;;;5013622;28;19968;-70
2022/09/29 11:32:29;;;;;;;;;;;17.30;99.90;;;;;;5013769;28;19959;-69
2022/09/29 11:35:10;;;;;;;;;;;17.10;99.90;;;;;;5000820;28;19909;-70
2022/09/29 11:37:38;;;;;;;;;;;17.60;99.90;;;;;;5013453;28;19944;-70
2022/09/29 11:40:11;;;;;;;;;;;17.20;99.90;;;;;;5013620;28;19909;-71
2022/09/29 11:42:40;;;;;;;;;;;17.30;99.90;;;;;;5013360;28;19909;-70
2022/09/29 11:45:13;;;;;;;;;;;17.90;99.90;;;;;;5013625;28;19932;-70
2022/09/29 11:47:51;;;;;;;;;;;17.90;99.90;;;;;;5011697;28;20016;-70
2022/09/29 11:50:30;;;;;;;;;;;17.90;99.90;;;;;;5012946;28;19937;-70
2022/09/29 11:53:01;;;;;;;;;;;19.00;99.90;;;;;;5013343;28;19909;-70
2022/09/29 11:55:32;;;;;;;;;;;20.50;98.30;;;;;;5013370;28;20275;-70
2022/09/29 11:58:00;;;;;;;;;;;21.80;96.10;;;;;;5013200;28;19960;-70
2022/09/29 12:00:44;;;;;;;;;;;23.60;92.50;;;;;;5013220;28;20034;-70
2022/09/29 12:03:29;;;;;;;;;;;24.50;91.20;;;;;;5012056;28;19956;-70
2022/09/29 12:06:07;;;;;;;;;;;23.10;92.20;;;;;;5005185;28;19909;-72
2022/09/29 12:08:35;;;;;;;;;;;21.30;93.50;;;;;;5011720;28;19954;-70
2022/09/29 12:11:04;;;;;;;;;;;22.80;91.80;;;;;;5003888;28;20270;-70
2022/09/29 12:13:49;;;;;;;;;;;23.90;91.70;;;;;;5012999;28;19929;-71
2022/09/29 12:16:16;;;;;;;;;;;25.40;88.50;;;;;;5004625;28;20004;-69
2022/09/29 12:18:46;;;;;;;;;;;24.70;88.80;;;;;;5012753;28;19910;-69
2022/09/29 12:21:14;;;;;;;;;;;24.00;89.30;;;;;;5005778;28;19917;-69
2022/09/29 12:23:41;;;;;;;;;;;25.20;86.90;;;;;;5016383;28;19912;-69
2022/09/29 12:26:13;;;;;;;;;;;25.10;82.90;;;;;;5016474;28;19910;-68
2022/09/29 12:28:53;;;;;;;;;;;23.60;87.70;;;;;;5011610;28;19917;-68
2022/09/29 12:31:22;;;;;;;;;;;24.50;85.80;;;;;;5011251;28;20408;-69
2022/09/29 12:33:50;;;;;;;;;;;23.90;90.00;;;;;;5016911;28;19944;-69
2022/09/29 12:39:20;;;;;;;;;;;26.70;82.70;;;;;;5013778;28;20274;-68
2022/09/29 12:41:55;;;;;;;;;;;27.30;81.00;;;;;;5017311;28;20278;-68
2022/09/29 12:44:23;;;;;;;;;;;27.00;80.60;;;;;;5016795;28;19909;-69
2022/09/29 12:46:52;;;;;;;;;;;24.20;85.50;;;;;;5012550;28;19905;-68
2022/09/29 12:49:20;;;;;;;;;;;24.00;86.60;;;;;;5017126;28;19921;-68
2022/09/29 12:51:46;;;;;;;;;;;22.50;88.90;;;;;;5016998;28;19909;-69
2022/09/29 12:54:31;;;;;;;;;;;20.70;91.80;;;;;;5021352;28;19920;-68
2022/09/29 12:57:04;;;;;;;;;;;20.30;93.80;;;;;;5015877;28;19932;-68
2022/09/29 12:59:43;;;;;;;;;;;20.00;95.00;;;;;;5014753;28;19917;-68
2022/09/29 13:02:37;;;;;;;;;;;19.70;96.40;;;;;;5008218;28;20274;-68
2022/09/29 13:05:21;;;;;;;;;;;19.00;96.70;;;;;;5020661;28;19917;-68
2022/09/29 13:07:55;;;;;;;;;;;19.10;97.80;;;;;;5014835;28;19913;-69
2022/09/29 13:10:26;;;;;;;;;;;20.10;96.70;;;;;;5015557;28;19913;-68
2022/09/29 13:13:00;;;;;;;;;;;21.80;94.40;;;;;;5017854;28;19913;-68
2022/09/29 13:15:45;;;;;;;;;;;21.90;94.50;;;;;;5015713;28;19909;-68
2022/09/29 13:18:22;;;;;;;;;;;21.30;94.40;;;;;;5021695;28;20004;-68
2022/09/29 13:20:57;;;;;;;;;;;21.20;94.80;;;;;;5017342;28;20320;-68
2022/09/29 13:23:42;;;;;;;;;;;21.40;94.20;;;;;;5025538;28;20362;-68
2022/09/29 13:26:23;;;;;;;;;;;22.60;92.30;;;;;;5011534;28;19913;-68
2022/09/29 13:28:51;;;;;;;;;;;21.50;93.50;;;;;;4995881;28;19930;-69
2022/09/29 13:31:20;;;;;;;;;;;20.40;93.60;;;;;;5006342;28;19918;-68
2022/09/29 13:33:47;;;;;;;;;;;20.90;95.30;;;;;;5006814;28;19905;-69
2022/09/29 13:36:34;;;;;;;;;;;21.70;94.80;;;;;;5013937;28;19916;-69